Time;durP1;ratioP1;P1;durP2;ratioP2;P2;SDS_P1;SDS_P2;PMS_P1;PMS_P2;Temp;Humidity;BMP_temperature;BMP_pressure;BME280_temperature;BME280_humidity;BME280_pressure;Samples;Min_cycle;Max_cycle;Signal;HPM_P1;HPM_P2
2022/09/17 00:00:16;;;;;;;10.43;7.55;;;;;;;11.26;81.02;98108.00;5064495;28;20454;-62
2022/09/17 00:02:43;;;;;;;9.15;7.82;;;;;;;11.17;81.17;98109.03;5073420;28;20031;-63
2022/09/17 00:05:09;;;;;;;11.98;7.88;;;;;;;11.13;81.07;98118.44;5041636;28;20099;-62
2022/09/17 00:07:35;;;;;;;9.27;7.72;;;;;;;11.07;81.12;98114.59;5053734;28;20041;-62
2022/09/17 00:10:00;;;;;;;9.60;7.18;;;;;;;10.98;81.20;98116.44;5053695;28;20486;-61
2022/09/17 00:12:26;;;;;;;9.27;7.40;;;;;;;10.93;81.24;98112.56;5067858;28;20024;-61
2022/09/17 00:14:51;;;;;;;11.32;7.63;;;;;;;10.88;81.32;98113.09;5068561;28;20031;-62
2022/09/17 00:17:16;;;;;;;9.80;7.63;;;;;;;10.81;81.78;98109.41;5052929;28;20031;-62
2022/09/17 00:19:42;;;;;;;9.60;7.30;;;;;;;10.60;81.57;98081.28;5068748;28;20090;-63
2022/09/17 00:22:07;;;;;;;9.05;7.47;;;;;;;10.74;81.61;98115.44;5073130;28;20032;-62
2022/09/17 00:24:33;;;;;;;8.77;7.05;;;;;;;10.60;81.67;98119.59;5054097;28;20464;-61
2022/09/17 00:26:58;;;;;;;9.48;6.40;;;;;;;10.45;81.41;98095.34;5054759;28;20032;-61
2022/09/17 00:29:24;;;;;;;8.43;7.20;;;;;;;10.60;82.00;98132.13;5053807;28;20128;-62
2022/09/17 00:31:49;;;;;;;9.13;6.78;;;;;;;10.56;81.73;98134.31;5052612;28;20123;-63
2022/09/17 00:34:15;;;;;;;9.43;7.30;;;;;;;10.43;81.93;98123.25;5053863;28;20363;-61
2022/09/17 00:36:40;;;;;;;10.35;6.72;;;;;;;10.45;82.08;98137.31;5054679;28;20048;-64
2022/09/17 00:39:08;;;;;;;10.75;6.75;;;;;;;10.30;81.72;98119.22;5067333;28;20063;-62
2022/09/17 00:41:35;;;;;;;11.25;6.82;;;;;;;10.41;82.27;98144.84;5058115;28;20056;-62
2022/09/17 00:44:39;;;;;;;11.65;6.53;;;;;;;10.50;82.15;98144.84;5072137;28;20048;-62
2022/09/17 00:47:11;;;;;;;8.45;6.53;;;;;;;10.38;81.79;98142.47;5072183;28;20502;-63
2022/09/17 00:49:37;;;;;;;8.20;6.40;;;;;;;10.29;81.58;98146.13;5063502;28;20438;-63
2022/09/17 00:52:09;;;;;;;8.25;6.07;;;;;;;10.26;82.08;98144.63;5053371;28;20073;-62
2022/09/17 00:54:38;;;;;;;7.65;6.68;;;;;;;10.22;82.28;98151.28;5050692;28;20058;-63
2022/09/17 00:57:04;;;;;;;8.13;6.53;;;;;;;10.14;81.82;98152.09;5063218;28;20785;-62
2022/09/17 00:59:30;;;;;;;9.77;5.78;;;;;;;10.06;82.13;98154.72;5053655;28;20047;-62
2022/09/17 01:01:55;;;;;;;7.43;5.80;;;;;;;10.08;82.40;98154.59;5071919;28;20025;-62
2022/09/17 01:04:24;;;;;;;11.27;6.30;;;;;;;10.06;82.05;98160.09;5063514;28;20451;-61
2022/09/17 01:07:10;;;;;;;12.45;6.60;;;;;;;10.09;81.94;98165.09;5064484;28;20085;-62
2022/09/17 01:09:39;;;;;;;9.50;6.50;;;;;;;10.02;82.39;98153.38;5072840;28;20032;-62
2022/09/17 01:12:51;;;;;;;8.77;6.28;;;;;;;10.06;82.11;98149.38;5067730;28;20036;-62
2022/09/17 01:15:28;;;;;;;7.55;5.95;;;;;;;9.99;81.75;98151.88;5049790;28;20051;-62
2022/09/17 01:18:33;;;;;;;8.88;6.30;;;;;;;10.04;82.49;98154.06;5053003;28;20045;-62
2022/09/17 01:21:01;;;;;;;8.00;5.95;;;;;;;9.95;82.44;98160.38;4994489;28;20077;-62
2022/09/17 01:23:52;;;;;;;7.65;6.25;;;;;;;9.92;82.39;98161.53;5062559;28;20064;-62
2022/09/17 01:26:30;;;;;;;8.07;6.38;;;;;;;9.85;82.36;98158.66;5061457;28;20378;-62
2022/09/17 01:29:01;;;;;;;8.10;6.30;;;;;;;9.83;82.17;98166.00;5058473;28;20040;-61
2022/09/17 01:31:42;;;;;;;10.52;6.50;;;;;;;9.87;82.43;98161.19;5051782;28;20036;-62
2022/09/17 01:34:26;;;;;;;9.80;6.00;;;;;;;9.65;82.02;98131.34;5067567;28;20032;-62
2022/09/17 01:37:10;;;;;;;6.70;5.82;;;;;;;9.80;82.18;98166.34;5071556;28;20081;-62
2022/09/17 01:39:52;;;;;;;8.27;6.60;;;;;;;9.70;82.27;98166.44;5069971;28;20028;-61
2022/09/17 01:42:33;;;;;;;7.28;6.35;;;;;;;9.72;82.30;98171.66;5071406;28;20067;-62
2022/09/17 01:45:32;;;;;;;8.85;6.82;;;;;;;9.74;82.51;98161.63;5055737;28;20056;-62
2022/09/17 01:48:01;;;;;;;10.52;6.43;;;;;;;9.65;82.53;98167.94;5040115;28;20107;-62
2022/09/17 01:50:37;;;;;;;10.25;7.07;;;;;;;9.61;82.25;98162.06;5063198;28;20154;-62
2022/09/17 01:53:03;;;;;;;9.32;6.68;;;;;;;9.32;82.10;98132.00;5066548;28;20427;-61
2022/09/17 01:55:34;;;;;;;11.63;6.82;;;;;;;9.52;82.56;98173.69;5071641;28;20459;-61
2022/09/17 01:58:07;;;;;;;9.77;7.00;;;;;;;9.50;82.57;98184.56;5060717;28;20037;-62
2022/09/17 02:00:34;;;;;;;10.35;7.40;;;;;;;9.41;82.34;98172.16;5070362;28;20443;-62
2022/09/17 02:03:08;;;;;;;10.55;7.65;;;;;;;9.46;82.62;98180.53;5055038;28;20062;-61
2022/09/17 02:05:52;;;;;;;11.40;7.77;;;;;;;9.43;82.54;98178.16;5051829;28;20034;-63
2022/09/17 02:08:25;;;;;;;9.90;7.15;;;;;;;9.43;82.47;98188.84;5062105;28;20036;-62
2022/09/17 02:11:01;;;;;;;14.60;8.02;;;;;;;9.21;82.52;98158.13;5071318;28;20032;-62
2022/09/17 02:13:38;;;;;;;12.77;7.30;;;;;;;9.37;82.82;98184.13;5071750;28;20032;-61
2022/09/17 02:16:15;;;;;;;12.98;7.13;;;;;;;9.33;82.60;98183.59;5070744;28;20025;-62
2022/09/17 02:19:05;;;;;;;10.00;6.88;;;;;;;9.33;82.73;98181.75;5058843;28;20112;-62
2022/09/17 02:21:47;;;;;;;10.82;7.10;;;;;;;9.20;82.72;98160.00;5075759;28;20028;-62
2022/09/17 02:24:25;;;;;;;8.60;7.15;;;;;;;9.27;82.45;98179.72;5057227;28;20068;-62
2022/09/17 02:27:09;;;;;;;11.52;6.75;;;;;;;9.22;82.57;98183.84;5056702;28;20064;-62
2022/09/17 02:29:38;;;;;;;11.27;6.55;;;;;;;9.17;82.25;98185.16;5055360;28;20414;-63
2022/09/17 02:32:05;;;;;;;8.13;6.68;;;;;;;9.08;82.55;98179.91;5055674;28;20037;-63
2022/09/17 02:34:31;;;;;;;10.63;7.35;;;;;;;9.12;83.00;98194.63;5069561;28;20033;-64
2022/09/17 02:37:00;;;;;;;9.43;7.30;;;;;;;9.11;82.98;98192.94;5055283;28;20103;-62
2022/09/17 02:39:26;;;;;;;13.73;7.88;;;;;;;9.02;82.95;98181.34;5056345;28;20466;-62
2022/09/17 02:42:07;;;;;;;12.15;7.82;;;;;;;9.08;82.95;98198.59;5054961;28;20435;-62
2022/09/17 02:44:59;;;;;;;11.35;7.60;;;;;;;9.17;83.01;98205.69;5056278;28;20040;-62
2022/09/17 02:47:59;;;;;;;10.98;6.93;;;;;;;9.14;82.85;98205.97;5060946;28;20029;-62
2022/09/17 02:50:49;;;;;;;12.20;7.10;;;;;;;9.09;82.50;98208.28;5074577;28;20048;-62
2022/09/17 02:53:24;;;;;;;9.27;7.10;;;;;;;9.08;82.65;98211.94;5054672;28;20445;-63
2022/09/17 02:56:19;;;;;;;11.53;6.83;;;;;;;8.97;82.47;98203.19;5069532;28;20123;-62
2022/09/17 02:59:36;;;;;;;9.80;7.03;;;;;;;9.09;82.30;98210.94;5066566;28;20059;-62
2022/09/17 03:02:08;;;;;;;11.07;6.57;;;;;;;9.03;82.51;98207.06;5039223;28;20366;-62
2022/09/17 03:04:35;;;;;;;10.43;6.55;;;;;;;8.95;82.58;98204.31;5075166;28;20119;-62
2022/09/17 03:07:08;;;;;;;8.85;6.57;;;;;;;9.00;82.87;98207.38;5062602;28;20043;-61
2022/09/17 03:09:34;;;;;;;9.05;5.53;;;;;;;8.97;82.85;98208.53;5067791;28;20086;-61
2022/09/17 03:12:01;;;;;;;11.82;6.00;;;;;;;8.93;82.61;98204.50;5070436;28;20036;-62
2022/09/17 03:14:27;;;;;;;9.82;5.95;;;;;;;8.90;82.48;98199.44;5056157;28;20082;-61
2022/09/17 03:16:52;;;;;;;9.73;6.22;;;;;;;9.01;82.43;98220.56;5074920;28;20032;-62
2022/09/17 03:19:18;;;;;;;11.10;6.25;;;;;;;8.66;82.33;98166.22;5073680;28;20037;-62
2022/09/17 03:21:43;;;;;;;7.07;5.53;;;;;;;9.06;82.22;98220.13;5074655;28;20075;-61
2022/09/17 03:24:10;;;;;;;9.10;5.70;;;;;;;9.10;82.36;98217.97;5042998;28;20029;-61
2022/09/17 03:26:36;;;;;;;6.78;4.53;;;;;;;9.16;82.29;98222.69;5063168;28;20048;-63
2022/09/17 03:29:02;;;;;;;9.50;4.70;;;;;;;9.21;82.08;98232.91;5074005;28;20040;-62
2022/09/17 03:31:28;;;;;;;4.97;4.38;;;;;;;9.28;81.95;98225.94;5063544;28;20323;-61
2022/09/17 03:33:53;;;;;;;7.40;4.95;;;;;;;9.49;82.15;98228.28;5055302;28;20037;-62
2022/09/17 03:36:19;;;;;;;10.00;5.72;;;;;;;10.19;80.89;98224.66;5058680;28;20358;-62
2022/09/17 03:38:44;;;;;;;6.80;5.25;;;;;;;10.81;76.93;98228.03;5072649;28;20107;-62
2022/09/17 03:41:10;;;;;;;5.28;4.78;;;;;;;10.96;75.55;98225.53;5074248;28;20036;-62
2022/09/17 03:43:35;;;;;;;9.15;5.43;;;;;;;10.94;74.79;98224.88;5072972;28;20446;-62
2022/09/17 03:46:01;;;;;;;6.95;5.28;;;;;;;11.29;75.30;98216.69;5067800;28;20032;-62
2022/09/17 03:48:28;;;;;;;6.32;4.97;;;;;;;12.27;72.00;98217.47;5068736;28;20890;-62
2022/09/17 03:50:54;;;;;;;6.57;4.43;;;;;;;13.45;67.34;98219.22;5055975;28;20040;-61
2022/09/17 03:53:19;;;;;;;5.85;4.15;;;;;;;13.93;64.60;98182.09;5060150;28;20504;-63
2022/09/17 03:55:45;;;;;;;6.70;4.00;;;;;;;14.72;62.63;98230.09;5054205;28;20028;-62
2022/09/17 03:58:10;;;;;;;7.10;3.67;;;;;;;15.47;60.53;98224.38;5074160;28;20025;-62
2022/09/17 04:00:36;;;;;;;4.45;3.45;;;;;;;16.26;57.92;98225.13;5070630;28;20430;-62
2022/09/17 04:03:05;;;;;;;4.78;3.28;;;;;;;16.57;55.69;98204.06;5060192;28;20044;-62
2022/09/17 04:05:31;;;;;;;4.60;3.40;;;;;;;17.30;54.41;98235.03;5066575;28;20625;-62
2022/09/17 04:07:57;;;;;;;5.00;3.70;;;;;;;18.10;51.65;98230.59;5038062;28;20120;-62
2022/09/17 04:10:23;;;;;;;4.15;3.05;;;;;;;18.83;49.21;98220.53;5074074;28;20115;-64
2022/09/17 04:12:48;;;;;;;5.82;2.83;;;;;;;19.33;47.66;98236.94;5073580;28;20426;-63
2022/09/17 04:15:14;;;;;;;5.00;2.88;;;;;;;19.83;46.05;98235.25;5071814;28;20036;-63
2022/09/17 04:17:39;;;;;;;4.45;3.20;;;;;;;20.56;44.29;98245.59;5073638;28;20347;-62
2022/09/17 04:20:06;;;;;;;4.88;3.13;;;;;;;21.49;42.01;98238.00;5073799;28;20074;-63
2022/09/17 04:22:32;;;;;;;7.30;3.13;;;;;;;22.20;40.36;98220.88;5071902;28;20055;-63
2022/09/17 04:24:57;;;;;;;3.25;2.83;;;;;;;23.21;37.84;98242.50;5054279;28;20116;-63
2022/09/17 04:27:23;;;;;;;6.55;2.90;;;;;;;23.88;36.39;98246.38;5065513;28;20425;-63
2022/09/17 04:29:48;;;;;;;4.13;3.00;;;;;;;24.43;34.81;98234.81;5072899;28;20443;-63
2022/09/17 04:32:14;;;;;;;3.45;2.58;;;;;;;25.03;33.37;98243.22;5072756;28;20032;-63
2022/09/17 04:34:40;;;;;;;6.45;2.78;;;;;;;25.56;31.98;98248.13;5071340;28;20087;-63
2022/09/17 04:37:05;;;;;;;3.47;2.65;;;;;;;25.98;31.29;98241.00;5072685;28;20442;-63
2022/09/17 04:39:31;;;;;;;3.22;2.45;;;;;;;26.57;29.84;98250.16;5069595;28;20047;-63
2022/09/17 04:41:56;;;;;;;4.30;3.00;;;;;;;27.13;28.47;98252.28;5071789;28;20366;-63
2022/09/17 04:44:22;;;;;;;5.35;2.80;;;;;;;27.70;27.82;98243.25;5072150;28;20033;-63
2022/09/17 04:46:47;;;;;;;3.97;2.40;;;;;;;28.39;26.55;98238.19;5054563;28;20032;-62
2022/09/17 04:49:13;;;;;;;4.20;2.45;;;;;;;28.82;25.66;98237.78;5070788;28;20043;-62
2022/09/17 04:51:38;;;;;;;6.80;2.88;;;;;;;29.41;24.74;98243.50;5071744;28;20048;-63
2022/09/17 04:54:04;;;;;;;5.75;3.10;;;;;;;29.85;23.76;98219.66;5059391;28;20414;-64
2022/09/17 04:56:29;;;;;;;5.88;2.60;;;;;;;30.47;23.35;98240.28;5052624;28;20036;-63
2022/09/17 04:58:55;;;;;;;4.03;2.53;;;;;;;30.76;22.41;98242.97;5052862;28;20335;-63
2022/09/17 05:01:20;;;;;;;4.40;2.25;;;;;;;31.26;21.82;98252.81;5053123;28;20033;-63
2022/09/17 05:03:46;;;;;;;4.68;2.38;;;;;;;31.78;21.51;98249.22;5040781;28;20075;-63
2022/09/17 05:06:11;;;;;;;3.38;2.38;;;;;;;32.45;20.23;98261.88;5058059;28;20033;-62
2022/09/17 05:08:37;;;;;;;3.97;2.20;;;;;;;33.00;19.74;98264.94;5058287;28;20025;-64
2022/09/17 05:11:03;;;;;;;4.72;2.22;;;;;;;33.32;19.00;98266.69;5072305;28;20051;-63
2022/09/17 05:13:28;;;;;;;3.25;1.80;;;;;;;33.78;18.76;98258.41;5058522;28;20036;-63
2022/09/17 05:15:57;;;;;;;4.53;2.30;;;;;;;34.25;18.33;98241.34;5070780;28;20035;-63
2022/09/17 05:18:23;;;;;;;4.80;2.20;;;;;;;34.87;17.49;98249.88;5069671;28;20025;-63
2022/09/17 05:20:48;;;;;;;4.15;2.55;;;;;;;35.25;17.10;98249.28;5042821;28;20040;-64
2022/09/17 05:23:14;;;;;;;4.78;2.63;;;;;;;35.42;16.52;98253.19;5056300;28;20136;-63
2022/09/17 05:25:39;;;;;;;3.20;2.15;;;;;;;35.99;16.07;98254.13;5053482;28;20033;-61
2022/09/17 05:28:05;;;;;;;3.83;2.70;;;;;;;36.43;15.65;98257.59;5052097;28;20029;-61
2022/09/17 05:30:31;;;;;;;5.95;2.90;;;;;;;36.76;15.27;98259.72;5060585;28;20064;-63
2022/09/17 05:33:01;;;;;;;5.45;2.97;;;;;;;37.16;15.38;98268.84;5055031;28;20036;-61
2022/09/17 05:35:28;;;;;;;6.40;2.92;;;;;;;37.05;14.95;98268.44;5071609;28;20095;-62
2022/09/17 05:37:59;;;;;;;4.53;2.58;;;;;;;37.34;15.30;98272.31;5072185;28;20024;-62
2022/09/17 05:40:25;;;;;;;7.03;2.50;;;;;;;37.23;14.48;98263.53;5064971;28;20036;-62
2022/09/17 05:42:50;;;;;;;2.88;2.10;;;;;;;37.34;14.28;98273.13;5061507;28;20032;-62
2022/09/17 05:45:15;;;;;;;4.82;2.00;;;;;;;37.58;14.06;98271.63;5072531;28;20111;-62
2022/09/17 05:47:41;;;;;;;5.45;2.50;;;;;;;37.73;14.14;98261.78;5054377;28;20438;-62
2022/09/17 05:50:07;;;;;;;4.95;2.65;;;;;;;37.83;13.92;98271.72;5056954;28;20398;-61
2022/09/17 05:52:33;;;;;;;5.85;2.30;;;;;;;36.52;14.96;98276.25;5052086;28;20029;-62
2022/09/17 05:54:58;;;;;;;5.28;2.97;;;;;;;33.79;17.32;98258.06;5057750;28;20070;-63
2022/09/17 05:57:23;;;;;;;4.93;2.80;;;;;;;31.79;19.69;98276.63;5072106;28;20028;-62
2022/09/17 05:59:49;;;;;;;2.85;2.33;;;;;;;30.34;21.05;98264.72;5071747;28;20349;-62
2022/09/17 06:02:14;;;;;;;3.90;2.67;;;;;;;30.20;21.66;98286.69;5056172;28;20033;-69
2022/09/17 06:04:40;;;;;;;4.55;2.42;;;;;;;30.71;20.50;98280.88;5052064;28;20041;-63
2022/09/17 06:07:07;;;;;;;4.93;2.40;;;;;;;30.30;21.29;98287.69;5052181;28;20065;-63
2022/09/17 06:09:36;;;;;;;6.18;2.50;;;;;;;29.22;22.17;98260.66;5070583;28;20037;-63
2022/09/17 06:12:03;;;;;;;4.00;2.55;;;;;;;27.99;23.71;98287.50;5071220;28;20055;-63
2022/09/17 06:14:29;;;;;;;5.40;2.58;;;;;;;26.93;25.29;98284.06;5069612;28;20032;-63
2022/09/17 06:16:55;;;;;;;4.97;2.50;;;;;;;26.58;26.03;98293.78;5071544;28;20094;-65
2022/09/17 06:19:21;;;;;;;5.30;2.45;;;;;;;26.64;26.01;98297.38;5063769;28;20128;-64
2022/09/17 06:21:47;;;;;;;4.53;2.42;;;;;;;26.53;26.01;98293.75;5051731;28;20416;-63
2022/09/17 06:24:12;;;;;;;8.43;2.53;;;;;;;26.03;26.18;98277.53;5054109;28;20075;-63
2022/09/17 06:26:38;;;;;;;5.85;2.70;;;;;;;25.56;27.18;98298.28;5071516;28;20040;-63
2022/09/17 06:29:04;;;;;;;5.32;2.97;;;;;;;24.83;28.34;98293.06;5071634;28;20039;-63
2022/09/17 06:31:29;;;;;;;6.70;2.72;;;;;;;24.25;29.55;98298.84;5062725;28;20358;-64
2022/09/17 06:33:56;;;;;;;6.97;2.92;;;;;;;23.91;29.99;98308.72;5051477;28;20033;-63
2022/09/17 06:36:21;;;;;;;4.82;2.53;;;;;;;23.96;29.28;98304.41;5051544;28;20501;-64
2022/09/17 06:38:47;;;;;;;8.00;3.03;;;;;;;23.92;29.74;98307.66;5052491;28;20029;-63
2022/09/17 06:41:13;;;;;;;8.93;3.03;;;;;;;23.90;29.57;98303.50;5051399;28;20360;-63
2022/09/17 06:43:39;;;;;;;7.45;2.97;;;;;;;23.90;29.52;98298.88;5052620;28;20435;-62
2022/09/17 06:46:05;;;;;;;8.95;3.05;;;;;;;23.98;29.65;98304.97;5033681;28;20073;-62
2022/09/17 06:48:33;;;;;;;5.35;2.60;;;;;;;23.87;29.62;98287.59;5052125;28;20033;-63
2022/09/17 06:51:07;;;;;;;5.85;2.65;;;;;;;23.78;30.08;98311.78;5065846;28;20477;-64
2022/09/17 06:53:35;;;;;;;4.93;2.53;;;;;;;23.36;30.56;98299.31;5071177;28;20036;-64
2022/09/17 06:56:01;;;;;;;5.00;2.63;;;;;;;23.39;30.21;98303.44;5070171;28;20032;-63
2022/09/17 06:58:28;;;;;;;8.82;3.17;;;;;;;23.44;30.68;98311.75;5071579;28;20024;-63
2022/09/17 07:01:00;;;;;;;8.45;2.63;;;;;;;23.33;30.84;98305.28;5071411;28;20024;-64
2022/09/17 07:03:27;;;;;;;7.60;2.60;;;;;;;22.94;30.87;98303.16;5051677;28;20454;-63
2022/09/17 07:05:52;;;;;;;7.93;3.00;;;;;;;22.56;31.05;98274.53;5055411;28;20036;-64
2022/09/17 07:08:18;;;;;;;6.72;2.83;;;;;;;22.71;31.21;98304.88;5055595;28;20032;-64
2022/09/17 07:10:43;;;;;;;6.35;2.95;;;;;;;22.57;31.49;98285.22;5056172;28;20431;-64
2022/09/17 07:13:09;;;;;;;10.00;3.00;;;;;;;22.65;31.75;98308.53;5055271;28;20033;-63
2022/09/17 07:15:34;;;;;;;10.55;2.80;;;;;;;22.47;30.72;98283.09;5073860;28;20078;-64
2022/09/17 07:18:10;;;;;;;7.07;2.40;;;;;;;22.48;31.41;98295.66;5074998;28;20040;-64
2022/09/17 07:20:36;;;;;;;8.13;2.72;;;;;;;22.24;31.84;98319.34;5058448;28;20455;-65
2022/09/17 07:23:02;;;;;;;8.45;2.60;;;;;;;22.00;31.93;98332.16;5055000;28;20060;-64
2022/09/17 07:25:27;;;;;;;11.68;2.47;;;;;;;21.75;32.33;98331.28;5072298;28;20075;-65
2022/09/17 07:27:53;;;;;;;5.10;2.30;;;;;;;21.70;32.30;98333.88;5074461;28;20028;-65
2022/09/17 07:30:19;;;;;;;9.43;2.40;;;;;;;21.83;33.11;98305.59;5059943;28;20308;-64
2022/09/17 07:32:45;;;;;;;8.18;2.20;;;;;;;22.32;31.79;98320.88;5054474;28;20041;-63
2022/09/17 07:35:11;;;;;;;14.63;2.33;;;;;;;22.72;31.43;98335.69;5057348;28;20040;-64
2022/09/17 07:37:37;;;;;;;8.25;2.55;;;;;;;23.04;30.05;98327.91;5074832;28;20024;-63
2022/09/17 07:40:05;;;;;;;11.05;2.28;;;;;;;23.21;29.89;98332.59;5074192;28;20029;-64
2022/09/17 07:42:31;;;;;;;5.50;1.88;;;;;;;23.49;29.88;98331.75;5054431;28;20036;-62
2022/09/17 07:44:57;;;;;;;10.05;2.72;;;;;;;23.90;29.24;98341.75;5053979;28;20722;-62
2022/09/17 07:47:23;;;;;;;7.78;2.10;;;;;;;23.93;28.92;98309.31;5064383;28;20028;-63
2022/09/17 07:49:48;;;;;;;6.60;2.58;;;;;;;24.20;28.41;98336.00;5074448;28;20048;-63
2022/09/17 07:52:13;;;;;;;6.72;2.17;;;;;;;24.35;28.33;98334.53;5065945;28;20040;-64
2022/09/17 07:54:39;;;;;;;6.65;2.00;;;;;;;24.39;28.41;98330.25;5053951;28;20033;-65
2022/09/17 07:57:04;;;;;;;6.15;2.17;;;;;;;24.43;28.08;98339.59;5040115;28;20025;-64
2022/09/17 07:59:30;;;;;;;5.22;2.13;;;;;;;24.35;28.19;98331.81;5054755;28;20103;-63
2022/09/17 08:01:55;;;;;;;6.47;2.38;;;;;;;24.36;28.18;98333.50;5054205;28;20033;-65
2022/09/17 08:04:21;;;;;;;7.78;1.85;;;;;;;24.39;28.51;98332.97;5046998;28;20033;-62
2022/09/17 08:06:47;;;;;;;5.63;2.40;;;;;;;24.29;28.16;98328.19;5073885;28;20029;-63
2022/09/17 08:09:14;;;;;;;9.07;2.63;;;;;;;24.12;28.66;98344.63;5066000;28;20033;-64
2022/09/17 08:11:41;;;;;;;5.78;1.98;;;;;;;24.08;28.75;98344.28;5053715;28;20419;-62
2022/09/17 08:14:12;;;;;;;7.38;2.20;;;;;;;24.06;28.68;98342.84;5059865;28;20066;-63
2022/09/17 08:16:38;;;;;;;9.65;2.55;;;;;;;23.75;28.62;98317.75;5065255;28;20040;-64
2022/09/17 08:19:04;;;;;;;7.80;2.15;;;;;;;23.86;28.96;98341.41;5072196;28;20029;-64
2022/09/17 08:21:29;;;;;;;8.50;1.95;;;;;;;23.78;28.90;98334.47;5073647;28;20097;-64
2022/09/17 08:23:56;;;;;;;7.85;2.00;;;;;;;23.51;29.06;98343.31;5058922;28;20039;-64
2022/09/17 08:26:23;;;;;;;8.80;2.00;;;;;;;23.08;29.31;98347.34;5053557;28;20036;-64
2022/09/17 08:28:53;;;;;;;5.28;1.98;;;;;;;22.36;30.23;98346.59;5055434;28;20047;-64
2022/09/17 08:31:18;;;;;;;7.25;2.03;;;;;;;21.57;31.47;98339.47;5073537;28;20051;-65
2022/09/17 08:33:45;;;;;;;3.70;1.80;;;;;;;21.03;32.92;98349.22;5073578;28;20029;-64
2022/09/17 08:36:13;;;;;;;5.45;2.10;;;;;;;20.58;33.95;98328.56;5066569;28;20127;-64
2022/09/17 08:38:39;;;;;;;6.35;2.42;;;;;;;20.19;34.43;98342.34;5073676;28;20059;-62
2022/09/17 08:41:13;;;;;;;6.90;1.95;;;;;;;19.75;35.42;98355.84;5073051;28;20036;-63
2022/09/17 08:43:43;;;;;;;6.32;2.28;;;;;;;19.54;36.28;98357.03;5053864;28;20033;-64
2022/09/17 08:46:09;;;;;;;6.05;2.03;;;;;;;19.25;35.89;98347.59;5053231;28;20029;-64
2022/09/17 08:48:55;;;;;;;8.80;2.00;;;;;;;19.17;36.79;98354.94;5063905;28;20043;-63
2022/09/17 08:51:40;;;;;;;;;;;;;;;19.49;35.54;98354.13;5074083;28;20063;-64
2022/09/17 08:54:20;;;;;;;9.27;2.08;;;;;;;18.98;36.29;98353.13;5068583;28;20007;-62
2022/09/17 08:57:00;;;;;;;6.85;1.98;;;;;;;18.78;37.32;98349.41;5018532;28;20033;-63
2022/09/17 08:59:43;;;;;;;7.60;2.08;;;;;;;18.79;36.13;98351.06;5053015;28;20044;-64
2022/09/17 09:02:31;;;;;;;10.60;1.80;;;;;;;18.78;36.65;98349.41;5067640;28;20036;-63
2022/09/17 09:05:14;;;;;;;5.47;2.33;;;;;;;18.75;36.46;98349.03;5072660;28;20025;-63
2022/09/17 09:08:12;;;;;;;9.23;2.13;;;;;;;18.72;36.39;98358.41;5060613;28;20060;-63
2022/09/17 09:10:57;;;;;;;4.60;1.90;;;;;;;18.66;36.13;98356.56;5046997;28;20040;-63
2022/09/17 09:13:27;;;;;;;5.50;2.03;;;;;;;18.66;35.91;98353.84;5052783;28;20043;-63
2022/09/17 09:16:00;;;;;;;5.07;1.52;;;;;;;18.95;35.08;98359.78;5038178;28;20049;-64
2022/09/17 09:18:30;;;;;;;4.28;1.60;;;;;;;19.27;35.23;98343.59;5073112;28;20059;-63
2022/09/17 09:21:16;;;;;;;9.10;2.10;;;;;;;19.73;34.51;98357.94;5072740;28;20066;-64
2022/09/17 09:24:14;;;;;;;5.28;1.40;;;;;;;19.99;32.72;98358.81;5058389;28;20033;-63
2022/09/17 09:27:01;;;;;;;7.10;1.92;;;;;;;20.34;32.47;98357.47;5049619;28;20121;-64
2022/09/17 09:29:42;;;;;;;4.70;1.30;;;;;;;20.35;32.14;98357.25;5061873;28;20129;-65
2022/09/17 09:32:45;;;;;;;3.33;1.85;;;;;;;20.51;31.37;98358.56;5072283;28;20059;-64
2022/09/17 09:35:15;;;;;;;6.32;1.58;;;;;;;20.41;31.43;98349.28;5065281;28;20036;-63
2022/09/17 09:37:46;;;;;;;3.63;1.27;;;;;;;20.39;31.11;98356.81;5052713;28;20365;-64
2022/09/17 09:40:29;;;;;;;5.90;1.60;;;;;;;20.45;31.38;98326.81;5051446;28;20033;-63
2022/09/17 09:42:59;;;;;;;7.60;1.30;;;;;;;20.65;30.90;98358.41;5053150;28;20037;-64
2022/09/17 09:45:42;;;;;;;7.63;1.13;;;;;;;20.87;31.34;98352.56;5052732;28;20061;-63
2022/09/17 09:48:22;;;;;;;7.70;2.20;;;;;;;20.96;30.58;98353.91;5061150;28;20028;-64
2022/09/17 09:51:22;;;;;;;5.55;1.70;;;;;;;21.11;30.79;98358.13;5058419;28;20092;-62
2022/09/17 09:54:18;;;;;;;5.20;1.40;;;;;;;21.09;30.81;98366.50;5061104;28;20064;-63
2022/09/17 09:56:56;;;;;;;5.93;1.58;;;;;;;20.89;30.07;98358.59;5052645;28;20462;-63
2022/09/17 09:59:22;;;;;;;7.00;1.83;;;;;;;20.68;29.86;98365.31;5053670;28;20104;-63
2022/09/17 10:01:47;;;;;;;5.30;2.00;;;;;;;20.58;29.04;98353.03;5039944;28;20028;-63
2022/09/17 10:04:22;;;;;;;4.38;1.10;;;;;;;20.53;29.04;98369.19;5072522;28;20033;-62
2022/09/17 10:06:53;;;;;;;2.50;0.90;;;;;;;20.10;28.98;98378.16;5061117;28;20037;-62
2022/09/17 10:09:21;;;;;;;3.40;1.00;;;;;;;19.76;29.54;98370.25;5052088;28;20041;-63
2022/09/17 10:11:59;;;;;;;3.42;1.13;;;;;;;19.85;30.16;98379.81;5055922;28;20242;-62
2022/09/17 10:14:28;;;;;;;5.32;1.40;;;;;;;19.78;29.84;98377.13;5072788;28;20044;-63
2022/09/17 10:17:20;;;;;;;3.90;1.20;;;;;;;19.85;30.09;98393.38;5072107;28;20047;-63
2022/09/17 10:20:10;;;;;;;4.95;0.90;;;;;;;19.91;30.04;98381.66;5053647;28;20110;-63
2022/09/17 10:22:39;;;;;;;4.20;1.10;;;;;;;19.85;29.09;98389.81;5040141;28;20087;-63
2022/09/17 10:25:19;;;;;;;3.10;0.77;;;;;;;19.75;29.67;98390.28;5060777;28;20037;-64
2022/09/17 10:27:46;;;;;;;5.53;1.38;;;;;;;19.87;29.19;98385.84;5071905;28;20398;-64
2022/09/17 10:30:11;;;;;;;3.78;1.27;;;;;;;19.96;29.30;98394.59;5070292;28;20032;-63
2022/09/17 10:32:36;;;;;;;5.22;1.33;;;;;;;20.18;29.26;98378.72;5072069;28;20418;-64
2022/09/17 10:35:14;;;;;;;6.63;1.50;;;;;;;20.57;29.01;98391.34;5071694;28;20123;-62
2022/09/17 10:37:44;;;;;;;2.75;1.10;;;;;;;20.58;29.13;98393.00;5053401;28;20040;-63
2022/09/17 10:40:18;;;;;;;5.57;1.50;;;;;;;20.66;29.15;98379.09;5074979;28;20146;-63
2022/09/17 10:42:45;;;;;;;6.97;1.73;;;;;;;20.36;28.62;98372.50;5073757;28;20029;-62
2022/09/17 10:45:29;;;;;;;4.00;1.00;;;;;;;20.42;29.17;98392.50;5075218;28;20032;-63
2022/09/17 10:47:59;;;;;;;4.55;1.45;;;;;;;20.06;29.74;98402.25;5074181;28;20033;-64
2022/09/17 10:50:28;;;;;;;4.45;1.10;;;;;;;19.85;29.89;98409.66;5074825;28;20063;-63
2022/09/17 10:52:57;;;;;;;2.80;1.10;;;;;;;19.73;30.51;98398.69;5057676;28;20078;-63
2022/09/17 10:55:44;;;;;;;4.32;1.55;;;;;;;19.82;30.38;98406.56;5059539;28;20047;-63
2022/09/17 10:58:27;;;;;;;4.38;1.20;;;;;;;19.86;30.66;98416.75;5055153;28;20040;-63
2022/09/17 11:01:01;;;;;;;5.43;1.20;;;;;;;19.75;31.05;98415.59;5067990;28;20044;-63
2022/09/17 11:03:58;;;;;;;3.05;1.25;;;;;;;19.62;31.46;98404.78;5058036;28;20127;-62
2022/09/17 11:06:30;;;;;;;2.60;1.38;;;;;;;19.40;31.84;98398.88;5065155;28;20075;-62
2022/09/17 11:09:08;;;;;;;4.38;1.30;;;;;;;19.11;32.81;98401.09;5055048;28;20037;-62
2022/09/17 11:11:58;;;;;;;3.42;1.30;;;;;;;18.98;32.98;98412.78;5056203;28;20032;-62
2022/09/17 11:14:40;;;;;;;6.00;1.60;;;;;;;18.53;33.84;98417.06;5054943;28;20037;-62
2022/09/17 11:17:11;;;;;;;4.45;1.17;;;;;;;18.38;33.98;98413.72;5054901;28;20036;-66
2022/09/17 11:20:04;;;;;;;3.47;1.40;;;;;;;18.55;33.97;98412.25;5075459;28;20033;-63
2022/09/17 11:22:32;;;;;;;6.53;1.55;;;;;;;18.69;34.06;98410.34;5075068;28;20435;-63
2022/09/17 11:25:16;;;;;;;4.85;1.63;;;;;;;19.01;33.77;98415.09;5064545;28;20082;-64
2022/09/17 11:27:54;;;;;;;6.00;1.60;;;;;;;19.07;33.78;98414.25;5054729;28;20033;-64
2022/09/17 11:30:22;;;;;;;3.63;1.40;;;;;;;18.86;34.03;98407.19;5058578;28;20028;-62
2022/09/17 11:33:19;;;;;;;3.85;1.48;;;;;;;18.97;34.29;98416.53;5074768;28;20044;-64
2022/09/17 11:35:48;;;;;;;4.05;1.70;;;;;;;19.00;34.00;98422.38;5048699;28;20794;-62
2022/09/17 11:38:37;;;;;;;4.30;1.67;;;;;;;19.31;33.62;98420.84;5054789;28;20041;-63
2022/09/17 11:41:24;;;;;;;3.75;1.40;;;;;;;19.45;33.32;98423.47;5063321;28;20457;-63
2022/09/17 11:44:11;;;;;;;4.90;1.50;;;;;;;19.09;33.86;98417.56;5034802;28;20087;-64
2022/09/17 11:46:41;;;;;;;4.93;1.70;;;;;;;18.82;34.36;98422.22;5034302;28;20455;-64
2022/09/17 11:49:37;;;;;;;8.85;1.65;;;;;;;18.62;34.83;98418.47;5062231;28;20477;-64
2022/09/17 11:52:10;;;;;;;7.03;1.48;;;;;;;18.36;35.10;98411.25;5074270;28;20473;-65
2022/09/17 11:54:47;;;;;;;6.03;1.88;;;;;;;18.38;35.26;98409.16;5061986;28;20400;-63